createdAt,value
2022-10-22T00:08:37.990Z,17.50
2022-10-22T00:18:40.747Z,12.90
2022-10-22T00:28:42.470Z,17.93
2022-10-22T00:38:44.184Z,14.18
2022-10-22T00:48:45.865Z,11.90
2022-10-22T00:58:53.666Z,12.82
2022-10-22T01:09:09.589Z,12.25
2022-10-22T01:19:41.280Z,14.57
2022-10-22T01:29:49.601Z,15.23
2022-10-22T01:39:53.109Z,10.27
2022-10-22T02:00:10.889Z,11.65
2022-10-22T02:10:15.110Z,12.75
2022-10-22T02:20:22.135Z,12.02
2022-10-22T02:30:23.856Z,13.50
2022-10-22T02:40:26.390Z,13.55
2022-10-22T02:50:27.984Z,14.68
2022-10-22T03:00:30.317Z,16.83
2022-10-22T03:10:32.494Z,13.13
2022-10-22T03:20:34.035Z,16.90
2022-10-22T03:30:35.776Z,13.15
2022-10-22T03:40:42.544Z,13.50
2022-10-22T03:50:44.161Z,16.25
2022-10-22T04:00:47.490Z,22.00
2022-10-22T04:10:52.412Z,17.45
2022-10-22T04:20:54.615Z,16.10
2022-10-22T04:30:56.507Z,18.33
2022-10-22T04:40:58.160Z,24.15
2022-10-22T04:51:00.873Z,23.48
2022-10-22T05:01:09.903Z,18.67
2022-10-22T05:11:20.843Z,28.17
2022-10-22T05:21:22.569Z,21.05
2022-10-22T05:31:24.514Z,19.15
2022-10-22T05:41:27.356Z,18.60
2022-10-22T05:51:32.015Z,22.33
2022-10-22T06:01:37.936Z,21.80
2022-10-22T06:11:39.580Z,23.13
2022-10-22T06:21:43.679Z,19.98
2022-10-22T06:31:45.376Z,31.17
2022-10-22T06:41:47.220Z,18.02
2022-10-22T06:51:53.752Z,19.77
2022-10-22T07:01:55.289Z,19.02
2022-10-22T07:11:57.049Z,18.40
2022-10-22T07:22:00.240Z,18.77
2022-10-22T07:42:04.457Z,24.38
2022-10-22T07:52:07.897Z,26.05
2022-10-22T08:02:11.429Z,19.25
2022-10-22T08:12:13.083Z,17.25
2022-10-22T08:22:16.673Z,17.43
2022-10-22T08:32:18.393Z,15.50
2022-10-22T08:42:26.366Z,16.08
2022-10-22T08:52:30.959Z,20.98
2022-10-22T09:02:59.292Z,15.63
2022-10-22T09:13:01.169Z,19.23
2022-10-22T09:23:22.231Z,29.73
2022-10-22T09:33:31.816Z,23.25
2022-10-22T09:43:35.138Z,21.67
2022-10-22T09:53:41.671Z,27.48
2022-10-22T10:03:43.266Z,21.25
2022-10-22T10:13:57.239Z,22.80
2022-10-22T10:24:18.150Z,22.50
2022-10-22T10:34:32.039Z,22.60
2022-10-22T10:45:00.988Z,24.25
2022-10-22T10:55:04.558Z,26.63
2022-10-22T11:05:31.157Z,23.42
2022-10-22T11:15:37.304Z,27.38
2022-10-22T11:25:44.643Z,23.75
2022-10-22T11:35:48.007Z,20.85
2022-10-22T11:45:50.587Z,24.08
2022-10-22T11:55:55.533Z,21.88
2022-10-22T12:06:12.489Z,25.75
2022-10-22T12:16:14.942Z,22.77
2022-10-22T12:36:35.282Z,28.08
2022-10-22T12:46:37.055Z,19.58
2022-10-22T12:56:38.783Z,23.47
2022-10-22T13:06:45.415Z,28.30
2022-10-22T13:17:05.716Z,21.95
2022-10-22T13:27:09.582Z,23.63
2022-10-22T13:37:14.320Z,40.80
2022-10-22T13:47:34.269Z,22.55
2022-10-22T13:57:35.835Z,32.60
2022-10-22T14:07:39.648Z,28.97
2022-10-22T14:17:44.677Z,26.13
2022-10-22T14:27:48.125Z,28.50
2022-10-22T14:37:51.241Z,24.80
2022-10-22T14:47:57.516Z,25.63
2022-10-22T14:57:59.288Z,38.40
2022-10-22T15:08:02.131Z,36.13
2022-10-22T15:18:06.833Z,23.85
2022-10-22T15:28:10.039Z,22.33
2022-10-22T15:38:11.829Z,20.65
2022-10-22T15:48:15.449Z,21.98
2022-10-22T15:58:17.360Z,27.27
2022-10-22T16:08:20.016Z,21.35
2022-10-22T16:18:22.000Z,29.83
2022-10-22T16:28:23.843Z,26.87
2022-10-22T16:38:29.258Z,31.55
2022-10-22T16:48:34.184Z,31.67
2022-10-22T16:58:37.383Z,30.52
2022-10-22T17:08:40.597Z,36.30
2022-10-22T17:28:47.709Z,34.92
2022-10-22T17:38:54.645Z,34.28
2022-10-22T17:49:03.718Z,34.65
2022-10-22T17:59:08.346Z,41.03
2022-10-22T18:09:14.523Z,37.95
2022-10-22T18:19:24.332Z,41.97
2022-10-22T18:29:26.086Z,47.03
2022-10-22T18:39:28.548Z,43.95
2022-10-22T18:49:30.812Z,40.00
2022-10-22T18:59:32.906Z,42.70
2022-10-22T19:09:35.131Z,43.10
2022-10-22T19:19:36.931Z,41.75
2022-10-22T19:29:40.069Z,44.95
2022-10-22T19:39:43.263Z,42.20
2022-10-22T19:49:45.370Z,43.17
2022-10-22T19:59:48.925Z,53.38
2022-10-22T20:09:54.425Z,49.25
2022-10-22T20:19:57.674Z,47.33
2022-10-22T20:30:00.607Z,49.95
2022-10-22T20:40:03.556Z,47.97
2022-10-22T20:50:05.534Z,54.90
2022-10-22T21:00:08.190Z,52.75
2022-10-22T21:10:11.174Z,59.00
2022-10-22T21:20:15.035Z,64.85
2022-10-22T21:30:18.301Z,76.03
2022-10-22T21:40:20.075Z,70.28
2022-10-22T21:50:21.696Z,73.20
2022-10-22T22:00:24.305Z,75.10
2022-10-22T22:10:28.054Z,80.00
2022-10-22T22:20:31.716Z,71.78
2022-10-22T22:30:33.549Z,84.35
2022-10-22T22:40:38.839Z,87.55
2022-10-22T22:50:44.690Z,86.05
2022-10-22T23:00:47.218Z,77.82
2022-10-22T23:10:49.825Z,89.18
2022-10-22T23:20:52.265Z,77.60
2022-10-22T23:30:53.922Z,80.93
2022-10-22T23:40:57.054Z,94.32
2022-10-22T23:51:10.555Z,84.72
